createdAt,value
2022-11-24T00:03:33.526Z,14.90
2022-11-24T00:08:39.313Z,14.20
2022-11-24T00:13:43.820Z,13.30
2022-11-24T00:18:49.157Z,11.70
2022-11-24T00:23:52.866Z,12.80
2022-11-24T00:28:58.599Z,12.30
2022-11-24T00:34:05.419Z,17.60
2022-11-24T00:39:16.021Z,12.80
2022-11-24T00:44:19.172Z,15.40
2022-11-24T00:49:22.168Z,12.80
2022-11-24T00:54:25.340Z,10.00
2022-11-24T00:59:28.404Z,10.20
2022-11-24T01:04:31.708Z,13.30
2022-11-24T01:09:35.135Z,11.00
2022-11-24T01:14:38.236Z,11.60
2022-11-24T01:19:41.269Z,10.30
2022-11-24T01:24:44.429Z,10.20
2022-11-24T01:29:47.632Z,10.60
2022-11-24T01:34:50.679Z,10.40
2022-11-24T01:39:53.716Z,9.00
2022-11-24T01:45:35.153Z,11.40
2022-11-24T01:50:38.306Z,11.50
2022-11-24T01:55:41.763Z,9.60
2022-11-24T02:00:46.127Z,11.00
2022-11-24T02:06:08.002Z,13.70
2022-11-24T02:11:11.408Z,11.50
2022-11-24T02:16:14.474Z,10.40
2022-11-24T02:21:18.377Z,9.20
2022-11-24T02:26:46.744Z,11.30
2022-11-24T02:31:55.580Z,11.20
2022-11-24T02:36:58.632Z,14.10
2022-11-24T02:42:08.590Z,13.50
2022-11-24T02:47:13.199Z,11.50
2022-11-24T02:52:16.618Z,12.50
2022-11-24T02:57:19.604Z,8.40
2022-11-24T03:02:23.388Z,11.70
2022-11-24T03:07:26.568Z,11.90
2022-11-24T03:12:29.631Z,12.10
2022-11-24T03:17:32.616Z,12.20
2022-11-24T03:22:37.100Z,13.60
2022-11-24T03:27:40.174Z,14.20
2022-11-24T03:32:43.245Z,12.00
2022-11-24T03:37:46.321Z,13.00
2022-11-24T03:42:49.352Z,14.30
2022-11-24T03:47:52.759Z,13.20
2022-11-24T03:52:55.933Z,10.90
2022-11-24T03:57:58.980Z,13.00
2022-11-24T04:03:02.072Z,12.10
2022-11-24T04:08:06.114Z,12.20
2022-11-24T04:13:17.631Z,10.50
2022-11-24T04:18:21.179Z,11.90
2022-11-24T04:23:24.234Z,11.30
2022-11-24T04:28:27.207Z,11.70
2022-11-24T04:33:30.222Z,12.40
2022-11-24T04:39:24.422Z,12.60
2022-11-24T04:43:56.251Z,11.20
2022-11-24T04:48:59.307Z,12.60
2022-11-24T04:54:02.302Z,11.00
2022-11-24T04:59:08.360Z,10.10
2022-11-24T05:04:14.240Z,9.10
2022-11-24T05:09:17.989Z,11.30
2022-11-24T05:14:21.087Z,10.50
2022-11-24T05:19:27.319Z,10.10
2022-11-24T05:24:33.150Z,6.10
2022-11-24T05:29:37.031Z,9.30
2022-11-24T05:34:39.951Z,11.80
2022-11-24T05:39:46.581Z,10.30
2022-11-24T05:44:49.602Z,9.90
2022-11-24T05:49:52.654Z,10.50
2022-11-24T05:54:55.468Z,11.00
2022-11-24T05:59:58.272Z,8.70
2022-11-24T06:05:01.325Z,16.10
2022-11-24T06:10:04.482Z,12.70
2022-11-24T06:15:07.718Z,18.70
2022-11-24T06:20:11.481Z,17.40
2022-11-24T06:25:14.592Z,14.40
2022-11-24T06:30:17.461Z,12.20
2022-11-24T06:35:20.244Z,12.70
2022-11-24T06:40:23.357Z,16.40
2022-11-24T06:45:26.352Z,13.50
2022-11-24T06:50:33.388Z,16.20
2022-11-24T06:55:36.751Z,19.90
2022-11-24T07:00:50.055Z,16.40
2022-11-24T07:05:59.671Z,26.30
2022-11-24T07:11:07.542Z,13.70
2022-11-24T07:16:12.021Z,10.80
2022-11-24T07:21:16.464Z,11.10
2022-11-24T07:26:20.389Z,16.60
2022-11-24T07:31:29.706Z,20.70
2022-11-24T07:36:33.980Z,13.60
2022-11-24T07:41:37.118Z,16.20
2022-11-24T07:46:40.611Z,20.60
2022-11-24T07:51:43.924Z,13.50
2022-11-24T07:56:54.062Z,12.60
2022-11-24T08:02:03.611Z,25.30
2022-11-24T08:07:13.323Z,13.20
2022-11-24T08:12:21.497Z,14.00
2022-11-24T08:17:24.522Z,23.20
2022-11-24T08:22:30.167Z,17.40
2022-11-24T08:27:33.097Z,17.80
2022-11-24T08:32:35.990Z,15.70
2022-11-24T08:37:43.015Z,13.90
2022-11-24T08:42:50.450Z,14.30
2022-11-24T08:47:54.551Z,12.70
2022-11-24T08:52:57.743Z,9.60
2022-11-24T08:58:03.080Z,10.90
2022-11-24T09:03:06.447Z,11.30
2022-11-24T09:08:09.834Z,8.70
2022-11-24T09:13:12.933Z,8.40
2022-11-24T09:18:18.036Z,8.70
2022-11-24T09:23:20.795Z,9.50
2022-11-24T09:28:23.578Z,8.30
2022-11-24T09:33:26.462Z,9.70
2022-11-24T09:38:30.926Z,10.30
2022-11-24T09:44:00.188Z,10.20
2022-11-24T09:49:08.170Z,8.30
2022-11-24T09:54:23.249Z,9.20
2022-11-24T09:59:27.754Z,9.20
2022-11-24T10:04:43.654Z,10.20
2022-11-24T10:10:07.912Z,11.10
2022-11-24T10:15:54.997Z,10.40
2022-11-24T10:21:34.933Z,10.50
2022-11-24T10:26:40.885Z,10.30
2022-11-24T10:31:45.882Z,12.20
2022-11-24T10:37:11.192Z,11.80
2022-11-24T10:42:37.335Z,11.90
2022-11-24T10:47:48.669Z,12.10
2022-11-24T10:53:19.120Z,13.50
2022-11-24T10:58:35.866Z,13.90
2022-11-24T11:04:01.772Z,8.90
2022-11-24T11:09:07.649Z,10.70
2022-11-24T11:14:13.127Z,13.80
2022-11-24T11:20:11.054Z,14.90
2022-11-24T11:25:28.826Z,11.40
2022-11-24T11:36:02.471Z,10.70
2022-11-24T11:41:07.569Z,12.40
2022-11-24T11:46:13.639Z,10.90
2022-11-24T11:57:22.726Z,11.90
2022-11-24T12:02:53.368Z,13.60
2022-11-24T12:08:19.203Z,19.00
2022-11-24T12:13:43.272Z,14.30
2022-11-24T12:18:58.206Z,13.80
2022-11-24T12:24:01.961Z,15.00
2022-11-24T12:29:26.531Z,18.00
2022-11-24T12:34:34.015Z,22.20
2022-11-24T12:39:58.625Z,28.00
2022-11-24T12:45:14.784Z,20.20
2022-11-24T12:50:21.698Z,18.80
2022-11-24T12:55:25.650Z,21.40
2022-11-24T13:01:01.748Z,16.00
2022-11-24T13:06:15.717Z,23.10
2022-11-24T13:11:21.407Z,22.10
2022-11-24T13:16:53.466Z,31.70
2022-11-24T13:21:51.100Z,19.50
2022-11-24T13:27:16.302Z,14.10
2022-11-24T13:32:19.179Z,14.40
2022-11-24T13:37:34.896Z,15.30
2022-11-24T13:48:20.996Z,15.60
2022-11-24T13:53:45.451Z,13.50
2022-11-24T13:58:51.922Z,14.30
2022-11-24T14:04:35.252Z,12.40
2022-11-24T14:09:45.655Z,15.80
2022-11-24T14:14:50.477Z,11.20
2022-11-24T14:19:58.472Z,10.60
2022-11-24T14:25:02.799Z,11.40
2022-11-24T14:30:13.485Z,15.20
2022-11-24T14:35:34.129Z,16.20
2022-11-24T14:40:43.285Z,15.20
2022-11-24T14:46:01.021Z,15.20
2022-11-24T14:51:25.129Z,14.20
2022-11-24T14:56:39.303Z,15.90
2022-11-24T15:01:42.137Z,16.40
2022-11-24T15:06:48.648Z,12.70
2022-11-24T15:11:51.591Z,11.50
2022-11-24T15:16:54.404Z,18.10
2022-11-24T15:21:57.289Z,16.90
2022-11-24T15:27:01.191Z,17.40
2022-11-24T15:32:15.560Z,18.80
2022-11-24T15:37:18.615Z,16.20
2022-11-24T15:42:21.384Z,14.90
2022-11-24T15:47:24.148Z,18.00
2022-11-24T15:52:26.901Z,20.90
2022-11-24T15:57:30.083Z,12.10
2022-11-24T16:02:33.047Z,15.70
2022-11-24T16:07:36.023Z,10.90
2022-11-24T16:12:38.857Z,15.60
2022-11-24T16:17:41.647Z,17.00
2022-11-24T16:22:44.699Z,15.80
2022-11-24T16:27:48.556Z,17.00
2022-11-24T16:32:51.460Z,19.60
2022-11-24T16:37:54.339Z,19.30
2022-11-24T16:42:58.506Z,17.90
2022-11-24T16:48:01.363Z,20.20
2022-11-24T16:53:04.204Z,18.40
2022-11-24T16:58:06.996Z,15.90
2022-11-24T17:03:09.865Z,20.70
2022-11-24T17:08:12.802Z,28.40
2022-11-24T17:13:15.971Z,36.70
2022-11-24T17:18:25.885Z,22.50
2022-11-24T17:23:29.634Z,36.50
2022-11-24T17:28:34.611Z,43.60
2022-11-24T17:33:37.474Z,18.10
2022-11-24T17:38:40.322Z,20.30
2022-11-24T17:43:43.749Z,11.70
2022-11-24T17:48:47.203Z,20.70
2022-11-24T17:53:52.136Z,16.90
2022-11-24T17:58:59.499Z,14.50
2022-11-24T18:04:02.813Z,16.60
2022-11-24T18:09:06.284Z,19.00
2022-11-24T18:14:10.020Z,14.10
2022-11-24T18:19:13.001Z,8.60
2022-11-24T18:24:22.557Z,18.50
2022-11-24T18:29:26.937Z,18.10
2022-11-24T18:34:29.862Z,19.00
2022-11-24T18:39:32.692Z,20.10
2022-11-24T18:44:38.045Z,15.40
2022-11-24T18:49:40.828Z,15.60
2022-11-24T18:54:45.428Z,18.90
2022-11-24T18:59:48.326Z,20.10
2022-11-24T19:04:51.400Z,20.50
2022-11-24T19:09:54.190Z,20.10
2022-11-24T19:14:56.927Z,21.70
2022-11-24T19:19:59.691Z,20.40
2022-11-24T19:25:02.477Z,20.70
2022-11-24T19:30:06.378Z,19.80
2022-11-24T19:35:09.713Z,21.20
2022-11-24T19:40:13.547Z,21.10
2022-11-24T19:45:16.351Z,23.10
2022-11-24T19:50:19.251Z,32.10
2022-11-24T19:55:23.020Z,48.90
2022-11-24T20:00:30.608Z,21.90
2022-11-24T20:05:34.921Z,24.50
2022-11-24T20:10:40.001Z,27.20
2022-11-24T20:15:42.774Z,47.50
2022-11-24T20:20:45.760Z,22.00
2022-11-24T20:25:48.581Z,20.90
2022-11-24T20:30:51.483Z,21.70
2022-11-24T20:35:54.600Z,20.90
2022-11-24T20:41:11.253Z,19.80
2022-11-24T20:46:20.509Z,22.20
2022-11-24T20:51:26.491Z,19.40
2022-11-24T20:56:35.310Z,20.80
2022-11-24T21:01:42.540Z,18.40
2022-11-24T21:06:46.212Z,16.50
2022-11-24T21:11:49.182Z,16.00
2022-11-24T21:16:52.035Z,16.40
2022-11-24T21:21:54.815Z,15.80
2022-11-24T21:26:57.940Z,13.50
2022-11-24T21:32:00.820Z,13.00
2022-11-24T21:37:05.322Z,13.40
2022-11-24T21:42:08.210Z,15.20
2022-11-24T21:47:10.995Z,16.50
2022-11-24T21:52:13.889Z,26.10
2022-11-24T21:57:17.489Z,15.30
2022-11-24T22:02:20.349Z,17.80
2022-11-24T22:07:23.255Z,13.90
2022-11-24T22:12:26.312Z,15.60
2022-11-24T22:17:31.052Z,13.50
2022-11-24T22:22:33.859Z,13.10
2022-11-24T22:27:36.744Z,15.00
2022-11-24T22:32:39.514Z,14.20
2022-11-24T22:37:42.286Z,11.60
2022-11-24T22:42:45.802Z,13.60
2022-11-24T22:47:48.555Z,13.70
2022-11-24T22:52:51.497Z,14.90
2022-11-24T22:57:56.985Z,14.90
2022-11-24T23:03:00.227Z,12.90
2022-11-24T23:08:03.323Z,12.70
2022-11-24T23:13:06.139Z,14.10
2022-11-24T23:18:08.933Z,12.20
2022-11-24T23:23:11.978Z,11.90
2022-11-24T23:28:14.804Z,11.30
2022-11-24T23:33:17.676Z,10.90
2022-11-24T23:38:20.457Z,10.60
2022-11-24T23:43:23.350Z,8.70
2022-11-24T23:48:26.455Z,6.70
2022-11-24T23:53:32.793Z,8.20
2022-11-24T23:58:35.573Z,9.20
